sensor_id;sensor_type;location;lat;lon;timestamp;P1;durP1;ratioP1;P2;durP2;ratioP2
22363;SDS011;11349;53.412;-1.328;2023-07-22T00:01:15;6.57;;;2.25;;
22363;SDS011;11349;53.412;-1.328;2023-07-22T00:03:41;3.72;;;1.80;;
22363;SDS011;11349;53.412;-1.328;2023-07-22T00:06:07;4.45;;;2.13;;
22363;SDS011;11349;53.412;-1.328;2023-07-22T00:08:35;7.75;;;2.08;;
22363;SDS011;11349;53.412;-1.328;2023-07-22T00:11:02;6.18;;;3.00;;
22363;SDS011;11349;53.412;-1.328;2023-07-22T00:13:28;4.60;;;2.10;;
22363;SDS011;11349;53.412;-1.328;2023-07-22T00:15:54;5.90;;;2.03;;
22363;SDS011;11349;53.412;-1.328;2023-07-22T00:18:20;5.82;;;2.67;;
22363;SDS011;11349;53.412;-1.328;2023-07-22T00:20:46;4.82;;;2.55;;
22363;SDS011;11349;53.412;-1.328;2023-07-22T00:23:12;5.45;;;2.25;;
22363;SDS011;11349;53.412;-1.328;2023-07-22T00:25:40;5.70;;;2.92;;
22363;SDS011;11349;53.412;-1.328;2023-07-22T00:28:06;4.72;;;2.03;;
22363;SDS011;11349;53.412;-1.328;2023-07-22T00:30:32;4.63;;;2.40;;
22363;SDS011;11349;53.412;-1.328;2023-07-22T00:32:57;5.00;;;2.47;;
22363;SDS011;11349;53.412;-1.328;2023-07-22T00:35:23;5.00;;;2.40;;
22363;SDS011;11349;53.412;-1.328;2023-07-22T00:37:49;8.20;;;2.65;;
22363;SDS011;11349;53.412;-1.328;2023-07-22T00:40:15;4.85;;;2.95;;
22363;SDS011;11349;53.412;-1.328;2023-07-22T00:42:41;4.82;;;2.67;;
22363;SDS011;11349;53.412;-1.328;2023-07-22T00:45:07;6.35;;;2.70;;
22363;SDS011;11349;53.412;-1.328;2023-07-22T00:47:36;5.00;;;2.75;;
22363;SDS011;11349;53.412;-1.328;2023-07-22T00:50:02;4.13;;;2.10;;
22363;SDS011;11349;53.412;-1.328;2023-07-22T00:52:29;4.93;;;2.53;;
22363;SDS011;11349;53.412;-1.328;2023-07-22T00:54:55;7.63;;;2.63;;
22363;SDS011;11349;53.412;-1.328;2023-07-22T00:57:21;5.93;;;3.00;;
22363;SDS011;11349;53.412;-1.328;2023-07-22T00:59:47;4.85;;;2.30;;
22363;SDS011;11349;53.412;-1.328;2023-07-22T01:02:14;5.75;;;2.97;;
22363;SDS011;11349;53.412;-1.328;2023-07-22T01:04:39;7.18;;;2.50;;
22363;SDS011;11349;53.412;-1.328;2023-07-22T01:07:05;5.47;;;2.60;;
22363;SDS011;11349;53.412;-1.328;2023-07-22T01:09:38;5.43;;;2.75;;
22363;SDS011;11349;53.412;-1.328;2023-07-22T01:12:04;6.60;;;2.75;;
22363;SDS011;11349;53.412;-1.328;2023-07-22T01:14:32;5.20;;;3.00;;
22363;SDS011;11349;53.412;-1.328;2023-07-22T01:16:59;4.88;;;2.75;;
22363;SDS011;11349;53.412;-1.328;2023-07-22T01:19:29;6.22;;;3.25;;
22363;SDS011;11349;53.412;-1.328;2023-07-22T01:21:59;4.88;;;2.63;;
22363;SDS011;11349;53.412;-1.328;2023-07-22T01:24:26;4.45;;;2.50;;
22363;SDS011;11349;53.412;-1.328;2023-07-22T01:26:53;6.10;;;2.60;;
22363;SDS011;11349;53.412;-1.328;2023-07-22T01:29:19;3.28;;;2.10;;
22363;SDS011;11349;53.412;-1.328;2023-07-22T01:31:48;6.70;;;2.08;;
22363;SDS011;11349;53.412;-1.328;2023-07-22T01:34:15;4.93;;;2.50;;
22363;SDS011;11349;53.412;-1.328;2023-07-22T01:36:40;2.78;;;1.88;;
22363;SDS011;11349;53.412;-1.328;2023-07-22T01:39:07;4.88;;;2.20;;
22363;SDS011;11349;53.412;-1.328;2023-07-22T01:41:33;4.43;;;1.70;;
22363;SDS011;11349;53.412;-1.328;2023-07-22T01:43:59;5.38;;;2.22;;
22363;SDS011;11349;53.412;-1.328;2023-07-22T01:46:25;5.40;;;2.53;;
22363;SDS011;11349;53.412;-1.328;2023-07-22T01:48:51;4.43;;;1.88;;
22363;SDS011;11349;53.412;-1.328;2023-07-22T01:51:16;5.25;;;1.80;;
22363;SDS011;11349;53.412;-1.328;2023-07-22T01:53:42;6.13;;;2.30;;
22363;SDS011;11349;53.412;-1.328;2023-07-22T01:56:08;3.92;;;1.88;;
22363;SDS011;11349;53.412;-1.328;2023-07-22T01:58:33;4.32;;;1.70;;
22363;SDS011;11349;53.412;-1.328;2023-07-22T02:00:59;4.80;;;1.88;;
22363;SDS011;11349;53.412;-1.328;2023-07-22T02:03:25;3.40;;;1.60;;
22363;SDS011;11349;53.412;-1.328;2023-07-22T02:05:51;6.68;;;2.00;;
22363;SDS011;11349;53.412;-1.328;2023-07-22T02:08:17;5.50;;;1.90;;
22363;SDS011;11349;53.412;-1.328;2023-07-22T02:10:43;5.70;;;2.28;;
22363;SDS011;11349;53.412;-1.328;2023-07-22T02:13:08;4.45;;;2.10;;
22363;SDS011;11349;53.412;-1.328;2023-07-22T02:15:34;6.20;;;2.08;;
22363;SDS011;11349;53.412;-1.328;2023-07-22T02:18:00;4.85;;;1.55;;
22363;SDS011;11349;53.412;-1.328;2023-07-22T02:20:26;4.15;;;1.83;;
22363;SDS011;11349;53.412;-1.328;2023-07-22T02:22:54;4.75;;;1.80;;
22363;SDS011;11349;53.412;-1.328;2023-07-22T02:25:20;4.18;;;1.70;;
22363;SDS011;11349;53.412;-1.328;2023-07-22T02:27:45;4.60;;;1.65;;
22363;SDS011;11349;53.412;-1.328;2023-07-22T02:30:11;5.75;;;1.70;;
22363;SDS011;11349;53.412;-1.328;2023-07-22T02:32:40;4.45;;;1.60;;
22363;SDS011;11349;53.412;-1.328;2023-07-22T02:35:06;4.45;;;1.80;;
22363;SDS011;11349;53.412;-1.328;2023-07-22T02:37:33;3.75;;;1.77;;
22363;SDS011;11349;53.412;-1.328;2023-07-22T02:40:02;3.83;;;1.63;;
22363;SDS011;11349;53.412;-1.328;2023-07-22T02:42:33;5.63;;;1.70;;
22363;SDS011;11349;53.412;-1.328;2023-07-22T02:45:00;4.35;;;1.60;;
22363;SDS011;11349;53.412;-1.328;2023-07-22T02:47:27;3.83;;;1.65;;
22363;SDS011;11349;53.412;-1.328;2023-07-22T02:49:53;4.75;;;2.65;;
22363;SDS011;11349;53.412;-1.328;2023-07-22T02:52:19;3.40;;;1.63;;
22363;SDS011;11349;53.412;-1.328;2023-07-22T02:55:03;3.60;;;1.52;;
22363;SDS011;11349;53.412;-1.328;2023-07-22T02:57:30;6.22;;;1.83;;
22363;SDS011;11349;53.412;-1.328;2023-07-22T02:59:56;5.43;;;2.42;;
22363;SDS011;11349;53.412;-1.328;2023-07-22T03:02:24;3.33;;;1.75;;
22363;SDS011;11349;53.412;-1.328;2023-07-22T03:04:50;4.88;;;1.80;;
22363;SDS011;11349;53.412;-1.328;2023-07-22T03:07:15;5.97;;;1.95;;
22363;SDS011;11349;53.412;-1.328;2023-07-22T03:09:41;3.70;;;1.85;;
22363;SDS011;11349;53.412;-1.328;2023-07-22T03:12:07;3.60;;;1.73;;
22363;SDS011;11349;53.412;-1.328;2023-07-22T03:14:33;3.88;;;1.73;;
22363;SDS011;11349;53.412;-1.328;2023-07-22T03:17:01;5.15;;;1.58;;
22363;SDS011;11349;53.412;-1.328;2023-07-22T03:19:28;4.82;;;1.88;;
22363;SDS011;11349;53.412;-1.328;2023-07-22T03:21:54;6.22;;;2.10;;
22363;SDS011;11349;53.412;-1.328;2023-07-22T03:24:20;4.75;;;2.00;;
22363;SDS011;11349;53.412;-1.328;2023-07-22T03:26:46;3.03;;;1.55;;
22363;SDS011;11349;53.412;-1.328;2023-07-22T03:29:12;5.28;;;1.50;;
22363;SDS011;11349;53.412;-1.328;2023-07-22T03:31:37;4.45;;;2.03;;
22363;SDS011;11349;53.412;-1.328;2023-07-22T03:34:04;4.78;;;1.40;;
22363;SDS011;11349;53.412;-1.328;2023-07-22T03:36:29;3.83;;;1.65;;
22363;SDS011;11349;53.412;-1.328;2023-07-22T03:38:58;5.75;;;1.70;;
22363;SDS011;11349;53.412;-1.328;2023-07-22T03:41:25;6.28;;;2.30;;
22363;SDS011;11349;53.412;-1.328;2023-07-22T03:43:50;4.93;;;1.48;;
22363;SDS011;11349;53.412;-1.328;2023-07-22T03:46:16;4.30;;;1.67;;
22363;SDS011;11349;53.412;-1.328;2023-07-22T03:48:42;7.47;;;1.80;;
22363;SDS011;11349;53.412;-1.328;2023-07-22T03:51:07;6.30;;;1.80;;
22363;SDS011;11349;53.412;-1.328;2023-07-22T03:53:33;7.50;;;1.42;;
22363;SDS011;11349;53.412;-1.328;2023-07-22T03:55:59;3.70;;;1.30;;
22363;SDS011;11349;53.412;-1.328;2023-07-22T03:58:25;3.70;;;1.15;;
22363;SDS011;11349;53.412;-1.328;2023-07-22T04:00:50;2.63;;;1.25;;
22363;SDS011;11349;53.412;-1.328;2023-07-22T04:03:16;4.10;;;1.55;;
22363;SDS011;11349;53.412;-1.328;2023-07-22T04:05:42;3.17;;;1.13;;
22363;SDS011;11349;53.412;-1.328;2023-07-22T04:08:07;3.15;;;1.60;;
22363;SDS011;11349;53.412;-1.328;2023-07-22T04:10:33;6.85;;;1.48;;
22363;SDS011;11349;53.412;-1.328;2023-07-22T04:13:01;3.92;;;1.30;;
22363;SDS011;11349;53.412;-1.328;2023-07-22T04:15:27;3.58;;;1.40;;
22363;SDS011;11349;53.412;-1.328;2023-07-22T04:17:54;6.22;;;1.63;;
22363;SDS011;11349;53.412;-1.328;2023-07-22T04:20:20;5.35;;;1.70;;
22363;SDS011;11349;53.412;-1.328;2023-07-22T04:22:49;5.25;;;1.80;;
22363;SDS011;11349;53.412;-1.328;2023-07-22T04:25:14;3.92;;;1.60;;
22363;SDS011;11349;53.412;-1.328;2023-07-22T04:27:40;5.05;;;1.80;;
22363;SDS011;11349;53.412;-1.328;2023-07-22T04:30:06;6.05;;;1.90;;
22363;SDS011;11349;53.412;-1.328;2023-07-22T04:32:32;4.93;;;1.90;;
22363;SDS011;11349;53.412;-1.328;2023-07-22T04:34:58;3.35;;;1.65;;
22363;SDS011;11349;53.412;-1.328;2023-07-22T04:37:24;4.68;;;1.90;;
22363;SDS011;11349;53.412;-1.328;2023-07-22T04:39:49;5.70;;;1.85;;
22363;SDS011;11349;53.412;-1.328;2023-07-22T04:42:15;4.30;;;1.80;;
22363;SDS011;11349;53.412;-1.328;2023-07-22T04:44:41;8.90;;;2.30;;
22363;SDS011;11349;53.412;-1.328;2023-07-22T04:47:09;4.07;;;1.83;;
22363;SDS011;11349;53.412;-1.328;2023-07-22T04:49:35;4.80;;;2.40;;
22363;SDS011;11349;53.412;-1.328;2023-07-22T04:52:01;4.18;;;1.90;;
22363;SDS011;11349;53.412;-1.328;2023-07-22T04:54:27;4.57;;;1.98;;
22363;SDS011;11349;53.412;-1.328;2023-07-22T04:56:53;4.45;;;1.95;;
22363;SDS011;11349;53.412;-1.328;2023-07-22T04:59:19;4.68;;;2.10;;
22363;SDS011;11349;53.412;-1.328;2023-07-22T05:01:44;6.35;;;2.03;;
22363;SDS011;11349;53.412;-1.328;2023-07-22T05:04:10;7.18;;;2.20;;
22363;SDS011;11349;53.412;-1.328;2023-07-22T05:06:36;5.97;;;2.55;;
22363;SDS011;11349;53.412;-1.328;2023-07-22T05:09:01;5.10;;;2.10;;
22363;SDS011;11349;53.412;-1.328;2023-07-22T05:11:28;5.97;;;2.10;;
22363;SDS011;11349;53.412;-1.328;2023-07-22T05:13:53;6.07;;;2.13;;
22363;SDS011;11349;53.412;-1.328;2023-07-22T05:16:19;4.40;;;2.35;;
22363;SDS011;11349;53.412;-1.328;2023-07-22T05:18:46;5.85;;;1.88;;
22363;SDS011;11349;53.412;-1.328;2023-07-22T05:21:12;6.20;;;2.58;;
22363;SDS011;11349;53.412;-1.328;2023-07-22T05:23:37;8.45;;;2.25;;
22363;SDS011;11349;53.412;-1.328;2023-07-22T05:26:03;5.88;;;2.20;;
22363;SDS011;11349;53.412;-1.328;2023-07-22T05:28:29;5.65;;;2.22;;
22363;SDS011;11349;53.412;-1.328;2023-07-22T05:30:55;4.88;;;2.70;;
22363;SDS011;11349;53.412;-1.328;2023-07-22T05:33:21;8.50;;;2.55;;
22363;SDS011;11349;53.412;-1.328;2023-07-22T05:35:47;7.07;;;2.40;;
22363;SDS011;11349;53.412;-1.328;2023-07-22T05:38:12;6.05;;;3.20;;
22363;SDS011;11349;53.412;-1.328;2023-07-22T05:40:38;6.22;;;2.92;;
22363;SDS011;11349;53.412;-1.328;2023-07-22T05:43:04;6.80;;;2.78;;
22363;SDS011;11349;53.412;-1.328;2023-07-22T05:45:29;6.53;;;2.42;;
22363;SDS011;11349;53.412;-1.328;2023-07-22T05:47:55;5.15;;;2.65;;
22363;SDS011;11349;53.412;-1.328;2023-07-22T05:50:21;5.68;;;2.70;;
22363;SDS011;11349;53.412;-1.328;2023-07-22T05:52:46;5.78;;;3.13;;
22363;SDS011;11349;53.412;-1.328;2023-07-22T05:55:13;6.75;;;2.33;;
22363;SDS011;11349;53.412;-1.328;2023-07-22T05:57:39;4.45;;;2.40;;
22363;SDS011;11349;53.412;-1.328;2023-07-22T06:00:06;6.32;;;3.25;;
22363;SDS011;11349;53.412;-1.328;2023-07-22T06:02:33;8.27;;;2.85;;
22363;SDS011;11349;53.412;-1.328;2023-07-22T06:04:59;7.80;;;3.58;;
22363;SDS011;11349;53.412;-1.328;2023-07-22T06:07:25;6.82;;;2.78;;
22363;SDS011;11349;53.412;-1.328;2023-07-22T06:09:50;7.45;;;3.55;;
22363;SDS011;11349;53.412;-1.328;2023-07-22T06:12:16;5.60;;;3.53;;
22363;SDS011;11349;53.412;-1.328;2023-07-22T06:14:42;6.95;;;3.10;;
22363;SDS011;11349;53.412;-1.328;2023-07-22T06:17:08;5.97;;;3.25;;
22363;SDS011;11349;53.412;-1.328;2023-07-22T06:19:33;7.10;;;2.50;;
22363;SDS011;11349;53.412;-1.328;2023-07-22T06:21:59;6.30;;;2.83;;
22363;SDS011;11349;53.412;-1.328;2023-07-22T06:24:25;6.82;;;3.30;;
22363;SDS011;11349;53.412;-1.328;2023-07-22T06:26:50;4.95;;;2.95;;
22363;SDS011;11349;53.412;-1.328;2023-07-22T06:29:16;4.97;;;3.08;;
22363;SDS011;11349;53.412;-1.328;2023-07-22T06:31:42;6.05;;;3.30;;
22363;SDS011;11349;53.412;-1.328;2023-07-22T06:34:07;8.18;;;3.72;;
22363;SDS011;11349;53.412;-1.328;2023-07-22T06:36:33;6.90;;;3.15;;
22363;SDS011;11349;53.412;-1.328;2023-07-22T06:39:02;7.57;;;3.25;;
22363;SDS011;11349;53.412;-1.328;2023-07-22T06:41:28;7.40;;;3.70;;
22363;SDS011;11349;53.412;-1.328;2023-07-22T06:43:54;8.18;;;3.72;;
22363;SDS011;11349;53.412;-1.328;2023-07-22T06:46:20;6.47;;;3.55;;
22363;SDS011;11349;53.412;-1.328;2023-07-22T06:48:46;6.57;;;3.80;;
22363;SDS011;11349;53.412;-1.328;2023-07-22T06:51:12;8.20;;;4.25;;
22363;SDS011;11349;53.412;-1.328;2023-07-22T06:53:38;8.18;;;5.25;;
22363;SDS011;11349;53.412;-1.328;2023-07-22T06:56:03;7.85;;;3.92;;
22363;SDS011;11349;53.412;-1.328;2023-07-22T06:58:29;7.32;;;4.70;;
22363;SDS011;11349;53.412;-1.328;2023-07-22T07:00:55;9.05;;;3.80;;
22363;SDS011;11349;53.412;-1.328;2023-07-22T07:03:21;7.43;;;3.55;;
22363;SDS011;11349;53.412;-1.328;2023-07-22T07:05:52;7.28;;;4.15;;
22363;SDS011;11349;53.412;-1.328;2023-07-22T07:08:18;6.75;;;3.83;;
22363;SDS011;11349;53.412;-1.328;2023-07-22T07:10:44;6.97;;;4.05;;
22363;SDS011;11349;53.412;-1.328;2023-07-22T07:13:09;8.30;;;5.07;;
22363;SDS011;11349;53.412;-1.328;2023-07-22T07:15:35;7.60;;;4.32;;
22363;SDS011;11349;53.412;-1.328;2023-07-22T07:18:01;9.20;;;5.05;;
22363;SDS011;11349;53.412;-1.328;2023-07-22T07:20:27;10.38;;;4.93;;
22363;SDS011;11349;53.412;-1.328;2023-07-22T07:22:52;9.57;;;5.10;;
22363;SDS011;11349;53.412;-1.328;2023-07-22T07:25:18;9.35;;;5.93;;
22363;SDS011;11349;53.412;-1.328;2023-07-22T07:27:44;8.73;;;4.80;;
22363;SDS011;11349;53.412;-1.328;2023-07-22T07:30:09;9.63;;;5.53;;
22363;SDS011;11349;53.412;-1.328;2023-07-22T07:32:35;8.68;;;5.20;;
22363;SDS011;11349;53.412;-1.328;2023-07-22T07:35:01;9.30;;;5.40;;
22363;SDS011;11349;53.412;-1.328;2023-07-22T07:37:29;9.52;;;5.70;;
22363;SDS011;11349;53.412;-1.328;2023-07-22T07:39:55;9.23;;;5.45;;
22363;SDS011;11349;53.412;-1.328;2023-07-22T07:42:24;9.57;;;5.38;;
22363;SDS011;11349;53.412;-1.328;2023-07-22T07:44:53;11.23;;;5.28;;
22363;SDS011;11349;53.412;-1.328;2023-07-22T07:47:19;9.05;;;5.90;;
22363;SDS011;11349;53.412;-1.328;2023-07-22T07:49:45;8.27;;;4.85;;
22363;SDS011;11349;53.412;-1.328;2023-07-22T07:52:11;8.43;;;4.75;;
22363;SDS011;11349;53.412;-1.328;2023-07-22T07:54:36;9.73;;;4.65;;
22363;SDS011;11349;53.412;-1.328;2023-07-22T07:57:02;8.50;;;5.32;;
22363;SDS011;11349;53.412;-1.328;2023-07-22T07:59:28;7.45;;;4.80;;
22363;SDS011;11349;53.412;-1.328;2023-07-22T08:01:54;9.02;;;4.55;;
22363;SDS011;11349;53.412;-1.328;2023-07-22T08:04:19;7.63;;;4.50;;
22363;SDS011;11349;53.412;-1.328;2023-07-22T08:06:45;6.95;;;4.30;;
22363;SDS011;11349;53.412;-1.328;2023-07-22T08:09:11;7.40;;;4.07;;
22363;SDS011;11349;53.412;-1.328;2023-07-22T08:11:43;6.43;;;4.20;;
22363;SDS011;11349;53.412;-1.328;2023-07-22T08:14:09;5.63;;;3.40;;
22363;SDS011;11349;53.412;-1.328;2023-07-22T08:16:35;11.82;;;4.72;;
22363;SDS011;11349;53.412;-1.328;2023-07-22T08:19:00;9.38;;;3.85;;
22363;SDS011;11349;53.412;-1.328;2023-07-22T08:21:26;6.95;;;3.85;;
22363;SDS011;11349;53.412;-1.328;2023-07-22T08:23:52;6.30;;;3.60;;
22363;SDS011;11349;53.412;-1.328;2023-07-22T08:26:18;6.88;;;4.00;;
22363;SDS011;11349;53.412;-1.328;2023-07-22T08:28:46;5.60;;;3.38;;
22363;SDS011;11349;53.412;-1.328;2023-07-22T08:31:12;5.00;;;2.75;;
22363;SDS011;11349;53.412;-1.328;2023-07-22T08:33:38;7.10;;;3.53;;
22363;SDS011;11349;53.412;-1.328;2023-07-22T08:36:03;4.78;;;2.95;;
22363;SDS011;11349;53.412;-1.328;2023-07-22T08:38:30;4.57;;;2.45;;
22363;SDS011;11349;53.412;-1.328;2023-07-22T08:40:56;5.75;;;2.90;;
22363;SDS011;11349;53.412;-1.328;2023-07-22T08:43:22;6.18;;;2.90;;
22363;SDS011;11349;53.412;-1.328;2023-07-22T08:45:48;5.05;;;2.42;;
22363;SDS011;11349;53.412;-1.328;2023-07-22T08:48:16;5.53;;;3.22;;
22363;SDS011;11349;53.412;-1.328;2023-07-22T08:53:19;4.82;;;3.08;;
22363;SDS011;11349;53.412;-1.328;2023-07-22T08:55:45;5.95;;;2.70;;
22363;SDS011;11349;53.412;-1.328;2023-07-22T08:58:13;5.93;;;3.33;;
22363;SDS011;11349;53.412;-1.328;2023-07-22T09:00:39;4.80;;;3.08;;
22363;SDS011;11349;53.412;-1.328;2023-07-22T09:03:05;5.65;;;2.75;;
22363;SDS011;11349;53.412;-1.328;2023-07-22T09:05:32;5.05;;;3.38;;
22363;SDS011;11349;53.412;-1.328;2023-07-22T09:07:59;6.20;;;3.42;;
22363;SDS011;11349;53.412;-1.328;2023-07-22T09:10:27;5.47;;;3.03;;
22363;SDS011;11349;53.412;-1.328;2023-07-22T09:12:53;7.57;;;3.60;;
22363;SDS011;11349;53.412;-1.328;2023-07-22T09:15:19;6.65;;;3.63;;
22363;SDS011;11349;53.412;-1.328;2023-07-22T09:17:46;5.55;;;3.55;;
22363;SDS011;11349;53.412;-1.328;2023-07-22T09:20:12;6.47;;;3.55;;
22363;SDS011;11349;53.412;-1.328;2023-07-22T09:22:42;6.15;;;3.90;;
22363;SDS011;11349;53.412;-1.328;2023-07-22T09:27:41;6.82;;;3.80;;
22363;SDS011;11349;53.412;-1.328;2023-07-22T09:30:28;6.22;;;3.58;;
22363;SDS011;11349;53.412;-1.328;2023-07-22T09:33:04;6.32;;;4.05;;
22363;SDS011;11349;53.412;-1.328;2023-07-22T09:35:42;6.18;;;3.53;;
22363;SDS011;11349;53.412;-1.328;2023-07-22T09:38:10;10.90;;;4.05;;
22363;SDS011;11349;53.412;-1.328;2023-07-22T09:40:36;6.72;;;4.50;;
22363;SDS011;11349;53.412;-1.328;2023-07-22T09:43:06;6.18;;;3.63;;
22363;SDS011;11349;53.412;-1.328;2023-07-22T09:45:35;7.82;;;4.03;;
22363;SDS011;11349;53.412;-1.328;2023-07-22T09:48:02;7.43;;;3.75;;
22363;SDS011;11349;53.412;-1.328;2023-07-22T09:50:28;6.25;;;3.42;;
22363;SDS011;11349;53.412;-1.328;2023-07-22T09:52:55;5.45;;;3.85;;
22363;SDS011;11349;53.412;-1.328;2023-07-22T09:55:25;7.65;;;4.00;;
22363;SDS011;11349;53.412;-1.328;2023-07-22T10:00:22;6.35;;;3.55;;
22363;SDS011;11349;53.412;-1.328;2023-07-22T10:02:51;9.68;;;3.78;;
22363;SDS011;11349;53.412;-1.328;2023-07-22T10:05:20;8.30;;;3.60;;
22363;SDS011;11349;53.412;-1.328;2023-07-22T10:07:48;6.03;;;4.03;;
22363;SDS011;11349;53.412;-1.328;2023-07-22T10:10:19;7.47;;;3.72;;
22363;SDS011;11349;53.412;-1.328;2023-07-22T10:12:46;5.88;;;3.72;;
22363;SDS011;11349;53.412;-1.328;2023-07-22T10:15:15;6.78;;;3.97;;
22363;SDS011;11349;53.412;-1.328;2023-07-22T10:17:43;5.38;;;3.33;;
22363;SDS011;11349;53.412;-1.328;2023-07-22T10:20:10;6.55;;;3.72;;
22363;SDS011;11349;53.412;-1.328;2023-07-22T10:22:41;5.93;;;3.50;;
22363;SDS011;11349;53.412;-1.328;2023-07-22T10:25:10;7.30;;;4.35;;
22363;SDS011;11349;53.412;-1.328;2023-07-22T10:27:46;5.30;;;3.53;;
22363;SDS011;11349;53.412;-1.328;2023-07-22T10:30:14;6.45;;;3.35;;
22363;SDS011;11349;53.412;-1.328;2023-07-22T10:32:53;7.00;;;3.85;;
22363;SDS011;11349;53.412;-1.328;2023-07-22T10:35:24;6.63;;;3.75;;
22363;SDS011;11349;53.412;-1.328;2023-07-22T10:40:51;7.32;;;3.60;;
22363;SDS011;11349;53.412;-1.328;2023-07-22T10:43:20;5.53;;;3.20;;
22363;SDS011;11349;53.412;-1.328;2023-07-22T10:45:55;4.70;;;3.13;;
22363;SDS011;11349;53.412;-1.328;2023-07-22T10:48:25;5.90;;;3.03;;
22363;SDS011;11349;53.412;-1.328;2023-07-22T10:51:02;6.40;;;3.25;;
22363;SDS011;11349;53.412;-1.328;2023-07-22T10:53:31;6.55;;;3.35;;
22363;SDS011;11349;53.412;-1.328;2023-07-22T11:06:32;4.55;;;2.63;;
22363;SDS011;11349;53.412;-1.328;2023-07-22T11:08:59;5.65;;;2.53;;
22363;SDS011;11349;53.412;-1.328;2023-07-22T11:11:42;4.13;;;2.55;;
22363;SDS011;11349;53.412;-1.328;2023-07-22T11:14:16;3.78;;;2.17;;
22363;SDS011;11349;53.412;-1.328;2023-07-22T11:16:45;5.38;;;2.70;;
22363;SDS011;11349;53.412;-1.328;2023-07-22T11:19:12;3.95;;;2.65;;
22363;SDS011;11349;53.412;-1.328;2023-07-22T11:21:40;5.28;;;2.20;;
22363;SDS011;11349;53.412;-1.328;2023-07-22T11:24:06;4.20;;;2.47;;
22363;SDS011;11349;53.412;-1.328;2023-07-22T11:26:32;6.13;;;2.92;;
22363;SDS011;11349;53.412;-1.328;2023-07-22T11:29:02;3.95;;;2.28;;
22363;SDS011;11349;53.412;-1.328;2023-07-22T11:31:32;4.75;;;2.33;;
22363;SDS011;11349;53.412;-1.328;2023-07-22T11:34:01;3.15;;;1.63;;
22363;SDS011;11349;53.412;-1.328;2023-07-22T11:36:30;2.92;;;1.75;;
22363;SDS011;11349;53.412;-1.328;2023-07-22T11:41:33;4.82;;;2.45;;
22363;SDS011;11349;53.412;-1.328;2023-07-22T11:44:00;3.35;;;1.58;;
22363;SDS011;11349;53.412;-1.328;2023-07-22T11:46:26;3.42;;;1.90;;
22363;SDS011;11349;53.412;-1.328;2023-07-22T11:48:53;4.55;;;1.85;;
22363;SDS011;11349;53.412;-1.328;2023-07-22T11:51:21;7.10;;;2.58;;
22363;SDS011;11349;53.412;-1.328;2023-07-22T11:53:48;3.40;;;1.90;;
22363;SDS011;11349;53.412;-1.328;2023-07-22T11:56:21;3.30;;;1.77;;
22363;SDS011;11349;53.412;-1.328;2023-07-22T11:58:49;6.43;;;2.33;;
22363;SDS011;11349;53.412;-1.328;2023-07-22T12:01:18;4.85;;;2.17;;
22363;SDS011;11349;53.412;-1.328;2023-07-22T12:03:44;3.85;;;2.00;;
22363;SDS011;11349;53.412;-1.328;2023-07-22T12:06:11;4.80;;;2.17;;
22363;SDS011;11349;53.412;-1.328;2023-07-22T12:08:47;3.58;;;2.17;;
22363;SDS011;11349;53.412;-1.328;2023-07-22T12:11:21;5.35;;;2.60;;
22363;SDS011;11349;53.412;-1.328;2023-07-22T12:14:07;4.63;;;2.72;;
22363;SDS011;11349;53.412;-1.328;2023-07-22T12:16:37;3.08;;;2.00;;
22363;SDS011;11349;53.412;-1.328;2023-07-22T12:19:04;4.18;;;2.25;;
22363;SDS011;11349;53.412;-1.328;2023-07-22T12:21:31;5.40;;;2.60;;
22363;SDS011;11349;53.412;-1.328;2023-07-22T12:23:57;4.50;;;2.30;;
22363;SDS011;11349;53.412;-1.328;2023-07-22T12:26:23;5.13;;;2.35;;
22363;SDS011;11349;53.412;-1.328;2023-07-22T12:28:49;3.25;;;1.70;;
22363;SDS011;11349;53.412;-1.328;2023-07-22T12:31:15;4.03;;;2.30;;
22363;SDS011;11349;53.412;-1.328;2023-07-22T12:33:41;5.28;;;2.70;;
22363;SDS011;11349;53.412;-1.328;2023-07-22T12:36:07;3.20;;;1.77;;
22363;SDS011;11349;53.412;-1.328;2023-07-22T12:38:33;4.90;;;2.13;;
22363;SDS011;11349;53.412;-1.328;2023-07-22T12:40:58;4.55;;;2.35;;
22363;SDS011;11349;53.412;-1.328;2023-07-22T12:43:25;3.10;;;1.80;;
22363;SDS011;11349;53.412;-1.328;2023-07-22T12:45:50;4.57;;;2.25;;
22363;SDS011;11349;53.412;-1.328;2023-07-22T12:48:16;4.32;;;2.28;;
22363;SDS011;11349;53.412;-1.328;2023-07-22T12:50:43;4.03;;;2.10;;
22363;SDS011;11349;53.412;-1.328;2023-07-22T12:53:09;3.38;;;2.00;;
22363;SDS011;11349;53.412;-1.328;2023-07-22T12:55:34;4.95;;;2.20;;
22363;SDS011;11349;53.412;-1.328;2023-07-22T12:58:00;5.55;;;1.85;;
22363;SDS011;11349;53.412;-1.328;2023-07-22T13:00:26;3.90;;;2.00;;
22363;SDS011;11349;53.412;-1.328;2023-07-22T13:02:53;3.67;;;1.92;;
22363;SDS011;11349;53.412;-1.328;2023-07-22T13:05:19;4.97;;;2.50;;
22363;SDS011;11349;53.412;-1.328;2023-07-22T13:07:45;4.20;;;2.05;;
22363;SDS011;11349;53.412;-1.328;2023-07-22T13:10:10;4.47;;;2.15;;
22363;SDS011;11349;53.412;-1.328;2023-07-22T13:12:40;4.90;;;2.15;;
22363;SDS011;11349;53.412;-1.328;2023-07-22T13:15:05;3.90;;;2.00;;
22363;SDS011;11349;53.412;-1.328;2023-07-22T13:17:31;3.90;;;1.58;;
22363;SDS011;11349;53.412;-1.328;2023-07-22T13:19:57;3.20;;;1.67;;
22363;SDS011;11349;53.412;-1.328;2023-07-22T13:22:23;3.88;;;1.65;;
22363;SDS011;11349;53.412;-1.328;2023-07-22T13:24:48;4.53;;;2.05;;
22363;SDS011;11349;53.412;-1.328;2023-07-22T13:27:14;4.70;;;1.75;;
22363;SDS011;11349;53.412;-1.328;2023-07-22T13:29:40;4.38;;;1.73;;
22363;SDS011;11349;53.412;-1.328;2023-07-22T13:32:05;4.78;;;1.77;;
22363;SDS011;11349;53.412;-1.328;2023-07-22T13:34:31;5.00;;;2.08;;
22363;SDS011;11349;53.412;-1.328;2023-07-22T13:36:57;3.58;;;1.95;;
22363;SDS011;11349;53.412;-1.328;2023-07-22T13:39:23;3.80;;;2.35;;
22363;SDS011;11349;53.412;-1.328;2023-07-22T13:41:49;4.32;;;2.03;;
22363;SDS011;11349;53.412;-1.328;2023-07-22T13:44:15;4.63;;;2.40;;
22363;SDS011;11349;53.412;-1.328;2023-07-22T13:46:41;3.67;;;2.20;;
22363;SDS011;11349;53.412;-1.328;2023-07-22T13:49:07;3.70;;;1.90;;
22363;SDS011;11349;53.412;-1.328;2023-07-22T13:51:33;4.57;;;1.85;;
22363;SDS011;11349;53.412;-1.328;2023-07-22T13:53:59;3.65;;;1.83;;
22363;SDS011;11349;53.412;-1.328;2023-07-22T13:56:24;3.90;;;1.60;;
22363;SDS011;11349;53.412;-1.328;2023-07-22T13:58:50;4.20;;;2.60;;
22363;SDS011;11349;53.412;-1.328;2023-07-22T14:01:17;3.88;;;2.30;;
22363;SDS011;11349;53.412;-1.328;2023-07-22T14:03:43;6.00;;;2.53;;
22363;SDS011;11349;53.412;-1.328;2023-07-22T14:06:08;4.43;;;1.88;;
22363;SDS011;11349;53.412;-1.328;2023-07-22T14:08:34;4.40;;;2.55;;
22363;SDS011;11349;53.412;-1.328;2023-07-22T14:11:00;3.88;;;2.40;;
22363;SDS011;11349;53.412;-1.328;2023-07-22T14:13:25;4.30;;;2.47;;
22363;SDS011;11349;53.412;-1.328;2023-07-22T14:15:51;2.92;;;1.65;;
22363;SDS011;11349;53.412;-1.328;2023-07-22T14:18:17;4.22;;;1.70;;
22363;SDS011;11349;53.412;-1.328;2023-07-22T14:20:44;3.55;;;1.77;;
22363;SDS011;11349;53.412;-1.328;2023-07-22T14:23:10;2.92;;;1.40;;
22363;SDS011;11349;53.412;-1.328;2023-07-22T14:25:36;3.42;;;2.08;;
22363;SDS011;11349;53.412;-1.328;2023-07-22T14:28:02;2.45;;;1.23;;
22363;SDS011;11349;53.412;-1.328;2023-07-22T14:30:28;3.60;;;1.55;;
22363;SDS011;11349;53.412;-1.328;2023-07-22T14:32:53;2.55;;;1.35;;
22363;SDS011;11349;53.412;-1.328;2023-07-22T14:35:20;3.97;;;1.55;;
22363;SDS011;11349;53.412;-1.328;2023-07-22T14:37:46;3.50;;;1.27;;
22363;SDS011;11349;53.412;-1.328;2023-07-22T14:40:12;3.28;;;1.58;;
22363;SDS011;11349;53.412;-1.328;2023-07-22T14:42:38;3.03;;;1.30;;
22363;SDS011;11349;53.412;-1.328;2023-07-22T14:45:04;2.25;;;1.08;;
22363;SDS011;11349;53.412;-1.328;2023-07-22T14:47:30;2.97;;;1.00;;
22363;SDS011;11349;53.412;-1.328;2023-07-22T14:49:56;2.33;;;1.02;;
22363;SDS011;11349;53.412;-1.328;2023-07-22T14:52:22;2.33;;;1.10;;
22363;SDS011;11349;53.412;-1.328;2023-07-22T14:54:48;2.13;;;1.10;;